South Houston, Texas
Current Conditions -  °F | °C
As of 9:53 AM on Thursday 23 Oct 2014 (Local Time) from KHOU Reporting Station
Broken Clouds Broken Clouds  
Wind Chill: 67°   Ceiling: 21000
Heat Index: 67°   Visibility: 10mi
Dew Point: 57°   Wind: 5mph
Humidity: 70%   Direction: 50°NE
Pressure: 30.13"   Gusts: NA
Location:  29.66°N, 95.24°W
Report Text: KHOU 231453Z 05004KT 10SM SCT170 BKN210 19/14 A3013 RMK AO2 SLP207 8/078/ T01940139 53016
Loading
Personal Weather Stations






























Interactive Weather Map
Tropical Storm Tracking
New forecast layout! Learn more

10-Day Weather Forecast

Advertisements
Track Severe Weather on mobile